Time;durP1;ratioP1;P1;durP2;ratioP2;P2;SDS_P1;SDS_P2;PMS_P1;PMS_P2;Temp;Humidity;BMP_temperature;BMP_pressure;BME280_temperature;BME280_humidity;BME280_pressure;Samples;Min_cycle;Max_cycle;Signal;HPM_P1;HPM_P2
2023/07/21 00:00:00;;;;;;;4.77;2.00;;;;;;;;;;5056229;28;20474;-47
2023/07/21 00:02:27;;;;;;;3.20;2.23;;;;;;;;;;5054500;28;20432;-44
2023/07/21 00:04:54;;;;;;;4.70;2.07;;;;;;;;;;5054127;28;20415;-46
2023/07/21 00:07:21;;;;;;;2.50;1.57;;;;;;;;;;5054015;28;20447;-45
2023/07/21 00:09:49;;;;;;;3.87;2.03;;;;;;;;;;5052788;28;20451;-47
2023/07/21 00:12:16;;;;;;;3.70;1.77;;;;;;;;;;5053720;28;20753;-46
2023/07/21 00:14:43;;;;;;;5.87;3.20;;;;;;;;;;5053603;28;20484;-46
2023/07/21 00:17:11;;;;;;;7.07;1.90;;;;;;;;;;5053292;28;20449;-48
2023/07/21 00:19:37;;;;;;;3.20;1.67;;;;;;;;;;5053041;28;20441;-44
2023/07/21 00:22:05;;;;;;;4.57;1.87;;;17.80;86.30;;;;;;5053509;28;20433;-45
2023/07/21 00:24:32;;;;;;;4.60;2.23;;;;;;;;;;5053804;28;20890;-45
2023/07/21 00:27:01;;;;;;;3.00;1.87;;;;;;;;;;5053380;28;20802;-46
2023/07/21 00:29:29;;;;;;;3.70;1.70;;;;;;;;;;5052946;28;20914;-45
2023/07/21 00:31:56;;;;;;;4.33;2.00;;;;;;;;;;5053332;28;20411;-45
2023/07/21 00:34:24;;;;;;;3.00;1.80;;;17.60;87.40;;;;;;5053334;28;20432;-44
2023/07/21 00:36:52;;;;;;;4.37;2.20;;;17.50;87.50;;;;;;5036145;28;20538;-45
2023/07/21 00:39:19;;;;;;;4.30;2.30;;;;;;;;;;5035866;28;20430;-45
2023/07/21 00:41:46;;;;;;;2.73;1.80;;;17.40;87.90;;;;;;5036233;28;20460;-46
2023/07/21 00:44:14;;;;;;;2.17;1.60;;;;;;;;;;5036185;28;20423;-46
2023/07/21 00:46:42;;;;;;;6.73;1.80;;;;;;;;;;5036288;28;20506;-45
2023/07/21 00:49:09;;;;;;;2.57;1.70;;;;;;;;;;5053931;28;20485;-45
2023/07/21 00:51:36;;;;;;;4.40;2.00;;;;;;;;;;5035878;28;20493;-46
2023/07/21 00:54:03;;;;;;;3.80;1.90;;;;;;;;;;5054075;28;20466;-46
2023/07/21 00:56:30;;;;;;;2.30;1.53;;;;;;;;;;5036273;28;20475;-46
2023/07/21 00:58:57;;;;;;;4.77;1.80;;;;;;;;;;5035557;28;20446;-46
2023/07/21 01:01:25;;;;;;;3.90;1.70;;;;;;;;;;5035501;28;20450;-47
2023/07/21 01:03:52;;;;;;;5.20;2.30;;;17.20;88.90;;;;;;5053759;28;20744;-48
2023/07/21 01:06:19;;;;;;;4.40;2.17;;;;;;;;;;5035826;28;20441;-46
2023/07/21 01:08:47;;;;;;;9.80;2.30;;;17.20;89.20;;;;;;5035543;28;20937;-46
2023/07/21 01:11:14;;;;;;;2.53;1.40;;;;;;;;;;5053508;28;20423;-46
2023/07/21 01:13:42;;;;;;;3.77;1.70;;;;;;;;;;5053788;28;20406;-46
2023/07/21 01:16:10;;;;;;;4.13;1.67;;;;;;;;;;5054706;28;20442;-46
2023/07/21 01:18:41;;;;;;;2.50;1.60;;;17.10;89.60;;;;;;5053671;28;20431;-47
2023/07/21 01:24:40;;;;;;;2.90;1.60;;;;;;;;;;5054712;28;20512;-46
2023/07/21 01:27:10;;;;;;;4.63;1.70;;;;;;;;;;5055649;28;20512;-46
2023/07/21 01:29:40;;;;;;;5.10;2.47;;;;;;;;;;5055021;28;20445;-46
2023/07/21 01:32:08;;;;;;;3.00;1.70;;;;;;;;;;5054382;28;20398;-45
2023/07/21 01:34:37;;;;;;;3.13;1.50;;;16.80;90.30;;;;;;5037221;28;20549;-45
2023/07/21 01:37:06;;;;;;;4.73;1.60;;;16.60;90.30;;;;;;5055211;28;20448;-45
2023/07/21 01:39:35;;;;;;;3.90;1.90;;;;;;;;;;5055112;28;20417;-45
2023/07/21 01:42:02;;;;;;;9.80;1.80;;;;;;;;;;5034797;28;20903;-46
2023/07/21 01:44:30;;;;;;;2.73;1.90;;;;;;;;;;5034763;28;20537;-46
2023/07/21 01:46:57;;;;;;;2.67;2.00;;;16.80;90.80;;;;;;5052609;28;20459;-45
2023/07/21 01:49:24;;;;;;;2.47;1.43;;;;;;;;;;5034395;28;20770;-45
2023/07/21 01:51:55;;;;;;;5.70;2.00;;;16.50;90.80;;;;;;5052437;28;20413;-45
2023/07/21 01:54:25;;;;;;;2.00;1.50;;;;;;;;;;5034352;28;20476;-45
2023/07/21 01:56:55;;;;;;;3.47;2.07;;;;;;;;;;5034565;28;20964;-46
2023/07/21 01:59:24;;;;;;;3.30;1.40;;;;;;;;;;5034259;28;20455;-46
2023/07/21 02:01:54;;;;;;;4.77;2.07;;;;;;;;;;5034063;28;20455;-46
2023/07/21 02:04:21;;;;;;;4.83;2.20;;;16.50;91.60;;;;;;5034788;28;20432;-46
2023/07/21 02:06:48;;;;;;;3.97;2.00;;;;;;;;;;5052150;28;20441;-45
2023/07/21 02:09:16;;;;;;;4.50;2.27;;;;;;;;;;5033722;28;20448;-45
2023/07/21 02:11:43;;;;;;;8.53;1.90;;;;;;;;;;5051888;28;20802;-46
2023/07/21 02:14:36;;;;;;;6.23;2.13;;;16.50;92.10;;;;;;5046974;28;20450;-46
2023/07/21 02:17:04;;;;;;;4.40;1.80;;;16.50;92.10;;;;;;5033879;28;20569;-45
2023/07/21 02:19:31;;;;;;;4.10;1.80;;;;;;;;;;5051616;28;20437;-46
2023/07/21 02:21:58;;;;;;;3.80;1.90;;;16.50;92.30;;;;;;5051888;28;20584;-45
2023/07/21 02:24:26;;;;;;;4.77;2.07;;;;;;;;;;5051979;28;20480;-45
2023/07/21 02:26:54;;;;;;;5.23;2.33;;;;;;;;;;5033881;28;20479;-45
2023/07/21 02:29:21;;;;;;;4.07;1.83;;;16.50;92.80;;;;;;5033418;28;20863;-45
2023/07/21 02:31:50;;;;;;;3.63;1.87;;;;;;;;;;5034532;28;20430;-45
2023/07/21 02:34:18;;;;;;;5.50;1.93;;;16.40;93.00;;;;;;5057324;28;20430;-46
2023/07/21 02:36:45;;;;;;;4.30;2.37;;;;;;;;;;5055450;28;20508;-46
2023/07/21 02:39:13;;;;;;;2.90;1.77;;;;;;;;;;5055408;28;20393;-46
2023/07/21 02:41:41;;;;;;;4.33;1.77;;;;;;;;;;5055506;28;20573;-46
2023/07/21 02:44:09;;;;;;;5.93;2.30;;;;;;;;;;5055575;28;20822;-46
2023/07/21 02:46:36;;;;;;;3.73;1.77;;;16.20;93.60;;;;;;5037322;28;20474;-46
2023/07/21 02:49:03;;;;;;;4.10;2.20;;;;;;;;;;5037031;28;20504;-46
2023/07/21 02:51:32;;;;;;;5.00;2.17;;;;;;;;;;5055362;28;20401;-46
2023/07/21 02:53:59;;;;;;;4.63;2.07;;;16.20;93.90;;;;;;5056149;28;20438;-46
2023/07/21 02:56:26;;;;;;;3.53;2.10;;;;;;;;;;5037035;28;21046;-47
2023/07/21 02:59:01;;;;;;;2.67;1.70;;;16.10;94.10;;;;;;5036982;28;20428;-46
2023/07/21 03:01:29;;;;;;;5.77;1.93;;;;;;;;;;5055285;28;20440;-46
2023/07/21 03:03:56;;;;;;;4.50;2.47;;;;;;;;;;5036919;28;20537;-46
2023/07/21 03:06:23;;;;;;;4.70;2.37;;;16.10;94.70;;;;;;5036926;28;20535;-46
2023/07/21 03:08:55;;;;;;;5.70;2.67;;;;;;;;;;5036801;28;20429;-46
2023/07/21 03:11:25;;;;;;;5.30;2.37;;;16.10;95.00;;;;;;5036842;28;20471;-46
2023/07/21 03:14:11;;;;;;;6.17;2.70;;;16.00;95.00;;;;;;5036853;28;20427;-46
2023/07/21 03:16:39;;;;;;;5.70;2.80;;;;;;;;;;5036460;28;20972;-46
2023/07/21 03:19:08;;;;;;;5.23;2.50;;;;;;;;;;5036343;28;20475;-46
2023/07/21 03:21:35;;;;;;;8.33;2.47;;;16.00;95.50;;;;;;5036890;28;20574;-46
2023/07/21 03:24:05;;;;;;;6.07;2.47;;;;;;;;;;5036740;28;20451;-46
2023/07/21 03:26:32;;;;;;;5.10;2.40;;;;;;;;;;5054472;28;20465;-46
2023/07/21 03:28:59;;;;;;;4.47;2.33;;;16.00;96.00;;;;;;5036028;28;20425;-46
2023/07/21 03:31:29;;;;;;;6.67;2.63;;;;;;;;;;5036353;28;20921;-46
2023/07/21 03:33:59;;;;;;;3.07;1.93;;;16.00;96.20;;;;;;5036360;28;20442;-46
2023/07/21 03:36:28;;;;;;;3.77;2.17;;;;;;;;;;5036109;28;20811;-47
2023/07/21 03:38:55;;;;;;;5.73;2.20;;;16.00;96.30;;;;;;5036086;28;20525;-46
2023/07/21 03:41:23;;;;;;;3.90;2.40;;;;;;;;;;5036056;28;20538;-46
2023/07/21 03:43:51;;;;;;;3.67;2.20;;;;;;;;;;5035946;28;20861;-46
2023/07/21 03:46:19;;;;;;;4.40;2.60;;;;;;;;;;5034977;28;20528;-46
2023/07/21 03:49:11;;;;;;;3.73;2.60;;;;;;;;;;5038223;28;20421;-46
2023/07/21 03:51:39;;;;;;;5.27;2.70;;;;;;;;;;5037273;28;20914;-47
2023/07/21 03:54:08;;;;;;;5.03;3.07;;;;;;;;;;5036283;28;21021;-46
2023/07/21 03:56:39;;;;;;;7.43;2.70;;;;;;;;;;5053723;28;20512;-46
2023/07/21 03:59:06;;;;;;;5.60;2.70;;;;;;;;;;5035623;28;20516;-46
2023/07/21 04:01:35;;;;;;;6.13;2.57;;;;;;;;;;5036473;28;20530;-46
2023/07/21 04:04:02;;;;;;;4.90;2.70;;;;;;;;;;5053474;28;20493;-46
2023/07/21 04:06:30;;;;;;;10.20;3.30;;;;;;;;;;5035613;28;20470;-46
2023/07/21 04:08:57;;;;;;;3.93;2.93;;;;;;;;;;5053177;28;20488;-46
2023/07/21 04:11:24;;;;;;;4.57;2.60;;;16.70;97.00;;;;;;5035749;28;20413;-46
2023/07/21 04:13:52;;;;;;;7.33;3.33;;;;;;;;;;5035497;28;20425;-46
2023/07/21 04:16:19;;;;;;;9.77;3.60;;;;;;;;;;5053675;28;20435;-46
2023/07/21 04:18:46;;;;;;;6.53;3.70;;;17.00;96.70;;;;;;5053106;28;20426;-44
2023/07/21 04:21:13;;;;;;;8.00;2.80;;;;;;;;;;5053705;28;20449;-46
2023/07/21 04:23:40;;;;;;;4.67;2.80;;;;;;;;;;5054779;28;20417;-46
2023/07/21 04:26:08;;;;;;;9.30;3.70;;;;;;;;;;5036646;28;20949;-45
2023/07/21 04:28:35;;;;;;;9.57;3.07;;;;;;;;;;5035372;28;20799;-46
2023/07/21 04:31:03;;;;;;;4.37;3.20;;;17.60;95.90;;;;;;5053336;28;20408;-45
2023/07/21 04:33:42;;;;;;;9.60;3.50;;;;;;;;;;5035617;28;20429;-45
2023/07/21 04:36:09;;;;;;;7.97;3.80;;;;;;;;;;5053187;28;20819;-46
2023/07/21 04:38:36;;;;;;;7.00;3.70;;;;;;;;;;5035389;28;20448;-46
2023/07/21 04:41:13;;;;;;;4.83;2.87;;;18.10;95.30;;;;;;5035509;28;20477;-47
2023/07/21 04:43:40;;;;;;;9.30;3.63;;;;;;;;;;5035553;28;20454;-45
2023/07/21 04:46:09;;;;;;;3.90;2.97;;;;;;;;;;5035156;28;20473;-46
2023/07/21 04:48:39;;;;;;;10.10;3.53;;;;;;;;;;5035426;28;20965;-46
2023/07/21 04:51:08;;;;;;;9.23;3.97;;;;;;;;;;5035833;28;20530;-44
2023/07/21 04:53:35;;;;;;;7.70;4.93;;;19.00;94.40;;;;;;5035661;28;20454;-46
2023/07/21 04:56:03;;;;;;;4.23;3.73;;;;;;;;;;5053529;28;20525;-46
2023/07/21 04:58:35;;;;;;;7.23;4.20;;;;;;;;;;5035553;28;20486;-45
2023/07/21 05:01:02;;;;;;;6.07;3.53;;;;;;;;;;5036388;28;20441;-46
2023/07/21 05:03:30;;;;;;;5.70;4.13;;;;;;;;;;5036431;28;20497;-46
2023/07/21 05:05:57;;;;;;;9.70;6.47;;;19.70;93.50;;;;;;5037285;28;20899;-45
2023/07/21 05:08:26;;;;;;;5.80;3.90;;;;;;;;;;5036287;28;20427;-46
2023/07/21 05:10:55;;;;;;;8.40;5.03;;;;;;;;;;5037657;28;20544;-46
2023/07/21 05:13:22;;;;;;;6.67;3.70;;;;;;;;;;5037274;28;20918;-46
2023/07/21 05:16:00;;;;;;;5.50;3.67;;;;;;;;;;5053778;28;20458;-46
2023/07/21 05:18:59;;;;;;;5.87;3.77;;;;;;;;;;5035307;28;20430;-46
2023/07/21 05:21:45;;;;;;;8.30;3.27;;;;;;;;;;5054104;28;20454;-47
2023/07/21 05:24:31;;;;;;;4.57;3.30;;;;;;;;;;5053667;28;20510;-46
2023/07/21 05:26:58;;;;;;;7.13;4.07;;;;;;;;;;5035645;28;20532;-46
2023/07/21 05:29:38;;;;;;;4.83;3.07;;;;;;;;;;5035163;28;20900;-46
2023/07/21 05:32:05;;;;;;;9.83;3.23;;;;;;;;;;5035568;28;20467;-47
2023/07/21 05:34:35;;;;;;;5.03;3.20;;;;;;;;;;5053052;28;20754;-47
2023/07/21 05:37:06;;;;;;;8.20;3.50;;;;;;;;;;5034953;28;20481;-47
2023/07/21 05:39:33;;;;;;;6.43;3.40;;;;;;;;;;5034593;28;20463;-46
2023/07/21 05:42:01;;;;;;;6.83;3.03;;;;;;;;;;5035157;28;20488;-47
2023/07/21 05:44:33;;;;;;;4.17;2.70;;;;;;;;;;5035185;28;20449;-46
2023/07/21 05:47:00;;;;;;;4.90;2.97;;;;;;;;;;5034800;28;20458;-47
2023/07/21 05:49:27;;;;;;;6.90;4.80;;;19.60;90.70;;;;;;5034794;28;20454;-46
2023/07/21 05:51:56;;;;;;;7.23;3.80;;;;;;;;;;5034649;28;20457;-46
2023/07/21 05:54:33;;;;;;;7.80;3.50;;;;;;;;;;5035236;28;20449;-46
2023/07/21 05:57:00;;;;;;;6.90;3.73;;;;;;;;;;5034913;28;20452;-45
2023/07/21 05:59:33;;;;;;;10.73;5.07;;;;;;;;;;5034322;28;20425;-46
2023/07/21 06:02:00;;;;;;;5.97;3.63;;;;;;;;;;5052817;28;20539;-47
2023/07/21 06:04:29;;;;;;;6.83;3.40;;;;;;;;;;5035042;28;20457;-46
2023/07/21 06:07:16;;;;;;;5.40;3.20;;;;;;;;;;5034442;28;20483;-46
2023/07/21 06:09:51;;;;;;;14.80;4.43;;;;;;;;;;5056456;28;20432;-46
2023/07/21 06:12:34;;;;;;;7.40;3.30;;;;;;;;;;5039227;28;20824;-46
2023/07/21 06:15:11;;;;;;;5.53;3.30;;;19.60;90.40;;;;;;5056538;28;20495;-46
2023/07/21 06:17:53;;;;;;;5.60;3.37;;;;;;;;;;5038858;28;20482;-46
2023/07/21 06:20:24;;;;;;;6.83;3.07;;;;;;;;;;5038088;28;20466;-47
2023/07/21 06:22:54;;;;;;;7.90;3.57;;;;;;;;;;5040633;28;20483;-47
2023/07/21 06:25:21;;;;;;;4.87;2.83;;;19.80;90.00;;;;;;5040882;28;20432;-46
2023/07/21 06:27:53;;;;;;;5.30;3.43;;;;;;;;;;5039266;28;20819;-47
2023/07/21 06:30:21;;;;;;;4.23;3.13;;;;;;;;;;5039029;28;20920;-46
2023/07/21 06:32:51;;;;;;;4.63;3.17;;;;;;;;;;5038721;28;21018;-47
2023/07/21 06:35:33;;;;;;;11.77;3.73;;;;;;;;;;5038746;28;20445;-47
2023/07/21 06:38:26;;;;;;;11.80;3.60;;;;;;;;;;5058707;23;20524;-48
2023/07/21 06:41:04;;;;;;;7.30;3.43;;;;;;;;;;5037224;28;20503;-48
2023/07/21 06:43:45;;;;;;;6.00;2.23;;;;;;;;;;5036979;28;20477;-49
2023/07/21 06:46:30;;;;;;;9.33;3.70;;;19.80;89.40;;;;;;5053796;28;20433;-48
2023/07/21 06:49:32;;;;;;;3.30;2.40;;;;;;;;;;4993220;28;20780;-48
2023/07/21 06:52:08;;;;;;;3.97;2.73;;;20.20;89.90;;;;;;5011624;28;20443;-48
2023/07/21 06:54:38;;;;;;;9.30;4.27;;;;;;;;;;5034940;28;20443;-47
2023/07/21 06:57:06;;;;;;;11.80;4.70;;;;;;;;;;5016972;28;20478;-47
2023/07/21 06:59:33;;;;;;;9.37;6.53;;;;;;;;;;5034679;28;20450;-48
2023/07/21 07:02:00;;;;;;;8.47;5.97;;;;;;;;;;5034444;28;20482;-48
2023/07/21 07:04:27;;;;;;;10.00;6.60;;;;;;;;;;5034794;28;20454;-48
2023/07/21 07:06:55;;;;;;;9.80;6.53;;;;;;;;;;5034773;28;20819;-49
2023/07/21 07:09:22;;;;;;;7.50;6.70;;;;;;;;;;5034268;28;20414;-48
2023/07/21 07:11:50;;;;;;;9.80;7.20;;;;;;;;;;5034521;28;20438;-48
2023/07/21 07:14:18;;;;;;;13.13;7.27;;;;;;;;;;5034621;28;20438;-48
2023/07/21 07:16:44;;;;;;;20.60;7.00;;;;;;;;;;5034459;28;20461;-47
2023/07/21 07:19:12;;;;;;;8.97;6.30;;;;;;;;;;5034161;28;20439;-47
2023/07/21 07:21:38;;;;;;;9.70;6.37;;;20.00;87.80;;;;;;5034520;28;20443;-48
2023/07/21 07:24:06;;;;;;;9.70;5.57;;;;;;;;;;5034432;28;21038;-48
2023/07/21 07:26:33;;;;;;;10.13;5.13;;;;;;;;;;5034057;28;20419;-49
2023/07/21 07:29:03;;;;;;;10.67;5.17;;;20.00;88.50;;;;;;5033979;28;20438;-47
2023/07/21 07:31:30;;;;;;;9.33;5.00;;;;;;;;;;5034259;28;20439;-48
2023/07/21 07:33:58;;;;;;;6.63;4.43;;;;;;;;;;5033830;28;20436;-47
2023/07/21 07:36:25;;;;;;;8.20;4.43;;;;;;;;;;5033780;28;20446;-47
2023/07/21 07:38:52;;;;;;;5.47;3.57;;;;;;;;;;5033851;28;20410;-49
2023/07/21 07:41:19;;;;;;;6.03;4.27;;;;;;;;;;5034224;28;20504;-48
2023/07/21 07:43:46;;;;;;;6.00;4.20;;;;;;;;;;5034360;28;20476;-48
2023/07/21 07:46:17;;;;;;;10.57;5.97;;;20.10;87.70;;;;;;5033845;28;20756;-48
2023/07/21 07:48:44;;;;;;;5.80;3.50;;;20.10;87.40;;;;;;5033781;28;20550;-48
2023/07/21 07:51:11;;;;;;;8.53;4.13;;;;;;;;;;5033785;28;20782;-47
2023/07/21 07:53:38;;;;;;;9.33;4.70;;;;;;;;;;5034181;28;20938;-48
2023/07/21 07:56:05;;;;;;;5.33;3.97;;;20.40;86.50;;;;;;5033862;28;20429;-48
2023/07/21 07:58:33;;;;;;;6.70;4.47;;;;;;;;;;5037729;28;20481;-48
2023/07/21 08:01:00;;;;;;;9.73;4.03;;;;;;;;;;5045974;28;20449;-48
2023/07/21 08:03:29;;;;;;;5.57;4.50;;;;;;;;;;5036998;28;20503;-48
2023/07/21 08:05:55;;;;;;;7.63;4.83;;;20.60;85.40;;;;;;5034081;28;20440;-48
2023/07/21 08:08:22;;;;;;;7.47;4.00;;;;;;;;;;5054032;28;20551;-47
2023/07/21 08:10:50;;;;;;;8.33;4.07;;;;;;;;;;5053593;28;20445;-47
2023/07/21 08:13:17;;;;;;;5.03;3.67;;;;;;;;;;5036073;28;20901;-48
2023/07/21 08:15:45;;;;;;;6.20;3.20;;;;;;;;;;5035327;28;20464;-47
2023/07/21 08:18:12;;;;;;;5.90;4.10;;;;;;;;;;5041756;28;20480;-49
2023/07/21 08:20:42;;;;;;;4.50;3.67;;;;;;;;;;5034623;28;20440;-48
2023/07/21 08:23:09;;;;;;;8.23;3.60;;;;;;;;;;5033204;28;20514;-49
2023/07/21 08:25:36;;;;;;;5.60;3.20;;;;;;;;;;5048766;28;20497;-49
2023/07/21 08:28:04;;;;;;;7.80;3.70;;;;;;;;;;5053235;28;20510;-48
2023/07/21 08:30:31;;;;;;;6.10;5.50;;;;;;;;;;5033655;28;20512;-47
2023/07/21 08:32:59;;;;;;;6.40;3.50;;;;;;;;;;5039114;28;20433;-49
2023/07/21 08:35:26;;;;;;;4.83;3.40;;;;;;;;;;5052976;28;20432;-48
2023/07/21 08:37:54;;;;;;;7.90;3.87;;;21.60;80.90;;;;;;5052905;28;20464;-48
2023/07/21 08:40:22;;;;;;;8.10;3.60;;;21.80;80.30;;;;;;5053186;28;20429;-47
2023/07/21 08:42:50;;;;;;;9.30;4.10;;;;;;;;;;5053152;28;20559;-47
2023/07/21 08:45:17;;;;;;;10.10;4.83;;;;;;;;;;5053050;28;20536;-47
2023/07/21 08:47:44;;;;;;;8.70;3.80;;;;;;;;;;5032723;28;20455;-48
2023/07/21 08:50:17;;;;;;;7.43;3.87;;;22.20;78.70;;;;;;5039825;28;20476;-48
2023/07/21 08:52:44;;;;;;;6.93;4.17;;;;;;;;;;5052874;28;20444;-48
2023/07/21 08:55:12;;;;;;;7.40;4.30;;;;;;;;;;5034985;28;20452;-48
2023/07/21 08:57:39;;;;;;;7.70;3.37;;;;;;;;;;5052466;28;20477;-49
2023/07/21 09:00:10;;;;;;;5.50;3.63;;;;;;;;;;5052162;28;20413;-48
2023/07/21 09:02:40;;;;;;;6.07;3.60;;;;;;;;;;5049113;28;20485;-49
2023/07/21 09:05:08;;;;;;;8.33;3.80;;;;;;;;;;5032340;28;20852;-49
2023/07/21 09:07:40;;;;;;;6.20;3.53;;;;;;;;;;5032267;28;20470;-48
2023/07/21 09:10:07;;;;;;;6.63;3.47;;;;;;;;;;5031810;28;20474;-48
2023/07/21 09:12:38;;;;;;;5.50;4.13;;;;;;;;;;5031748;28;20502;-48
2023/07/21 09:15:09;;;;;;;7.13;3.33;;;;;;;;;;5014847;28;21006;-48
2023/07/21 09:17:41;;;;;;;4.80;3.27;;;;;;;;;;5031657;28;20498;-49
2023/07/21 09:20:09;;;;;;;5.60;2.50;;;22.30;76.50;;;;;;5037545;28;20493;-48
2023/07/21 09:22:37;;;;;;;8.13;3.70;;;;;;;;;;5039908;28;20485;-47
2023/07/21 09:25:04;;;;;;;6.00;2.83;;;22.20;78.20;;;;;;5027384;28;20515;-47
2023/07/21 09:27:33;;;;;;;4.10;2.20;;;;;;;;;;5034667;28;20459;-47
2023/07/21 09:30:03;;;;;;;4.27;2.43;;;22.20;78.00;;;;;;5014340;28;20537;-48
2023/07/21 09:32:30;;;;;;;8.83;2.13;;;;;;;;;;5031203;28;20473;-47
2023/07/21 09:34:58;;;;;;;6.03;2.20;;;;;;;;;;5031807;28;20432;-48
2023/07/21 09:37:26;;;;;;;6.90;2.50;;;;;;;;;;5031624;28;20519;-48
2023/07/21 09:39:54;;;;;;;8.73;2.97;;;;;;;;;;5031455;28;20418;-47
2023/07/21 09:42:23;;;;;;;14.63;2.70;;;;;;;;;;5031453;28;20907;-48
2023/07/21 09:44:51;;;;;;;10.07;2.60;;;;;;;;;;5031719;28;20529;-48
2023/07/21 09:47:19;;;;;;;4.37;2.20;;;;;;;;;;5031584;28;20463;-48
2023/07/21 09:49:46;;;;;;;5.37;2.10;;;;;;;;;;5031586;28;20817;-48
2023/07/21 09:52:15;;;;;;;13.13;2.80;;;22.30;78.40;;;;;;5031404;28;20446;-48
2023/07/21 09:54:44;;;;;;;7.13;2.37;;;;;;;;;;5031947;28;20438;-48
2023/07/21 09:57:12;;;;;;;5.70;2.33;;;;;;;;;;5031907;28;20456;-49
2023/07/21 09:59:40;;;;;;;3.93;1.83;;;;;;;;;;5031296;28;20481;-47
2023/07/21 10:02:08;;;;;;;6.75;2.60;;;;;;;;;;5031254;28;20428;-48
2023/07/21 10:04:38;;;;;;;5.03;1.90;;;22.40;73.40;;;;;;5030779;28;20545;-48
2023/07/21 10:07:07;;;;;;;5.90;1.80;;;;;;;;;;5004277;28;20454;-47
2023/07/21 10:09:36;;;;;;;3.70;1.57;;;;;;;;;;4994380;28;20210;-48
2023/07/21 10:12:14;;;;;;;7.57;2.13;;;;;;;;;;5012733;28;20418;-48
2023/07/21 10:14:41;;;;;;;7.17;2.83;;;;;;;;;;5012528;28;20428;-47
2023/07/21 10:17:09;;;;;;;5.50;2.80;;;;;;;;;;5012558;28;20500;-47
2023/07/21 10:19:44;;;;;;;4.00;2.30;;;;;;;;;;5012026;28;20942;-47
2023/07/21 10:22:12;;;;;;;8.90;2.23;;;;;;;;;;5012238;28;20818;-47
2023/07/21 10:24:44;;;;;;;7.40;2.27;;;;;;;;;;5012487;28;20862;-48
2023/07/21 10:27:19;;;;;;;23.17;4.57;;;;;;;;;;5012522;28;20448;-48
2023/07/21 10:29:46;;;;;;;4.50;2.10;;;;;;;;;;5011966;28;20446;-48
2023/07/21 10:32:13;;;;;;;3.03;2.10;;;;;;;;;;5012072;28;20412;-48
2023/07/21 10:34:41;;;;;;;2.57;1.67;;;;;;;;;;5012555;28;20539;-47
2023/07/21 10:37:10;;;;;;;6.90;2.87;;;;;;;;;;4994509;28;20475;-47
2023/07/21 10:39:41;;;;;;;5.90;1.90;;;;;;;;;;5012444;28;20420;-48
2023/07/21 10:42:09;;;;;;;5.73;2.20;;;;;;;;;;5012807;28;20451;-47
2023/07/21 10:44:37;;;;;;;3.00;1.80;;;;;;;;;;5012455;28;21020;-48
2023/07/21 10:47:04;;;;;;;4.83;1.87;;;;;;;;;;5012722;28;20454;-47
2023/07/21 10:49:32;;;;;;;13.70;2.30;;;23.70;71.70;;;;;;5012634;28;20470;-47
2023/07/21 10:51:59;;;;;;;5.83;2.27;;;;;;;;;;5012527;28;21134;-48
2023/07/21 10:54:27;;;;;;;2.90;1.67;;;;;;;;;;5013769;28;20526;-47
2023/07/21 10:56:54;;;;;;;3.13;2.23;;;;;;;;;;4998514;28;20471;-47
2023/07/21 10:59:21;;;;;;;5.47;2.87;;;;;;;;;;5015859;28;20443;-48
2023/07/21 11:01:50;;;;;;;4.70;2.30;;;;;;;;;;5016343;28;20535;-46
2023/07/21 11:04:18;;;;;;;4.70;2.23;;;;;;;;;;5016226;28;20683;-47
2023/07/21 11:06:45;;;;;;;3.93;2.47;;;;;;;;;;5016040;28;20485;-48
2023/07/21 11:09:13;;;;;;;3.77;2.50;;;;;;;;;;5015329;28;20447;-48
2023/07/21 11:11:43;;;;;;;7.03;2.50;;;;;;;;;;5016033;28;20417;-47
2023/07/21 11:14:11;;;;;;;3.67;2.43;;;23.90;72.50;;;;;;5015564;28;20614;-47
2023/07/21 11:16:42;;;;;;;6.07;2.13;;;;;;;;;;5017905;28;20441;-49
2023/07/21 11:19:09;;;;;;;7.70;2.00;;;;;;;;;;5034510;28;20448;-48
2023/07/21 11:21:36;;;;;;;5.53;2.10;;;;;;;;;;5017184;28;20447;-47
2023/07/21 11:24:04;;;;;;;4.30;2.27;;;23.80;71.50;;;;;;5034832;28;20492;-48
2023/07/21 11:26:31;;;;;;;5.80;2.53;;;;;;;;;;5035183;28;20437;-48
2023/07/21 11:29:00;;;;;;;8.27;2.83;;;;;;;;;;5016969;28;20427;-47
2023/07/21 11:31:32;;;;;;;3.90;1.97;;;;;;;;;;5035665;28;20455;-48
2023/07/21 11:33:59;;;;;;;5.53;2.03;;;;;;;;;;5035004;28;20412;-48
2023/07/21 11:36:29;;;;;;;6.73;2.20;;;;;;;;;;5034897;28;20409;-49
2023/07/21 11:39:00;;;;;;;5.80;2.50;;;;;;;;;;5033819;28;20443;-48
2023/07/21 11:41:45;;;;;;;4.60;1.90;;;;;;;;;;5034147;28;20966;-48
2023/07/21 11:44:18;;;;;;;4.60;2.20;;;;;;;;;;5033259;28;20902;-49
2023/07/21 11:46:52;;;;;;;5.80;3.13;;;;;;;;;;5033591;28;20446;-48
2023/07/21 11:49:19;;;;;;;3.50;2.30;;;;;;;;;;5033933;28;20438;-47
2023/07/21 11:51:47;;;;;;;6.33;2.40;;;;;;;;;;5033983;28;20894;-49
2023/07/21 11:54:21;;;;;;;6.90;1.97;;;23.70;74.30;;;;;;5033297;28;20930;-47
2023/07/21 11:56:48;;;;;;;4.60;2.13;;;;;;;;;;5033395;28;20458;-47
2023/07/21 11:59:17;;;;;;;4.17;2.30;;;;;;;;;;5032798;28;20449;-48
2023/07/21 12:01:44;;;;;;;6.27;2.30;;;;;;;;;;5033361;28;20435;-48
2023/07/21 12:04:11;;;;;;;4.47;1.73;;;23.40;74.10;;;;;;5033512;28;20832;-48
2023/07/21 12:06:38;;;;;;;5.73;2.13;;;;;;;;;;5032586;28;20536;-48
2023/07/21 12:09:06;;;;;;;2.83;1.77;;;;;;;;;;5033070;28;20422;-49
2023/07/21 12:11:33;;;;;;;2.80;2.13;;;23.40;75.10;;;;;;5033421;28;20430;-48
2023/07/21 12:14:00;;;;;;;3.80;2.07;;;;;;;;;;5032820;28;20435;-48
2023/07/21 12:16:29;;;;;;;4.33;2.17;;;;;;;;;;5014935;28;20453;-49
2023/07/21 12:18:56;;;;;;;3.93;2.10;;;;;;;;;;5032382;28;20476;-49
2023/07/21 12:21:24;;;;;;;3.13;2.00;;;23.30;75.20;;;;;;5032814;28;20499;-49
2023/07/21 12:23:51;;;;;;;9.57;3.30;;;;;;;;;;5032532;28;20478;-47
2023/07/21 12:26:18;;;;;;;6.20;2.87;;;;;;;;;;5032419;28;20450;-48
2023/07/21 12:28:48;;;;;;;2.50;2.10;;;;;;;;;;5031965;28;20439;-49
2023/07/21 12:31:15;;;;;;;4.03;1.87;;;;;;;;;;5032200;28;20425;-48
2023/07/21 12:33:45;;;;;;;3.93;2.07;;;;;;;;;;5032221;28;20468;-48
2023/07/21 12:36:12;;;;;;;4.40;2.00;;;;;;;;;;5032420;28;20437;-49
2023/07/21 12:38:41;;;;;;;3.53;2.10;;;;;;;;;;5026413;22;972290;-48
2023/07/21 12:41:08;;;;;;;7.20;4.13;;;;;;;;;;5051378;28;20206;-46
2023/07/21 12:43:35;;;;;;;2.87;1.70;;;;;;;;;;5053168;28;20543;-45
2023/07/21 12:46:02;;;;;;;2.60;1.93;;;;;;;;;;5052905;28;20428;-46
2023/07/21 12:48:30;;;;;;;11.17;2.30;;;;;;;;;;5036799;28;20462;-44
2023/07/21 12:50:58;;;;;;;8.60;2.67;;;23.60;76.80;;;;;;5032536;28;20555;-45
2023/07/21 12:53:26;;;;;;;6.93;2.10;;;;;;;;;;5032347;28;20442;-46
2023/07/21 12:55:53;;;;;;;4.57;2.70;;;;;;;;;;5032823;28;20441;-45
2023/07/21 12:58:20;;;;;;;6.80;2.67;;;;;;;;;;5032144;28;20459;-47
2023/07/21 13:00:47;;;;;;;5.80;2.40;;;;;;;;;;5032745;28;20415;-46
2023/07/21 13:03:14;;;;;;;6.40;2.10;;;23.70;79.20;;;;;;5032719;28;20417;-46
2023/07/21 13:05:42;;;;;;;2.80;1.90;;;;;;;;;;5032268;28;20493;-46
2023/07/21 13:08:10;;;;;;;5.43;2.90;;;;;;;;;;5031735;28;21039;-46
2023/07/21 13:10:37;;;;;;;2.90;2.03;;;;;;;;;;5032044;28;20443;-45
2023/07/21 13:13:04;;;;;;;3.10;2.00;;;;;;;;;;5032467;28;20437;-46
2023/07/21 13:15:32;;;;;;;6.90;2.23;;;;;;;;;;5032524;28;20415;-45
2023/07/21 13:17:59;;;;;;;3.60;2.43;;;;;;;;;;5031957;28;20436;-46
2023/07/21 13:20:25;;;;;;;5.30;2.63;;;24.20;74.00;;;;;;5032056;28;20450;-47
2023/07/21 13:22:53;;;;;;;2.90;1.80;;;;;;;;;;5032177;28;20513;-47
2023/07/21 13:25:21;;;;;;;7.80;3.10;;;;;;;;;;5032390;28;20573;-45
2023/07/21 13:27:49;;;;;;;5.60;2.90;;;;;;;;;;5031836;28;20458;-45
2023/07/21 13:30:15;;;;;;;7.40;2.40;;;24.30;72.50;;;;;;5031880;28;20447;-45
2023/07/21 13:32:42;;;;;;;4.43;2.20;;;;;;;;;;5032201;28;20434;-48
2023/07/21 13:35:09;;;;;;;2.80;2.43;;;24.30;72.20;;;;;;5031944;28;20450;-45
2023/07/21 13:37:36;;;;;;;2.10;1.60;;;;;;;;;;5032120;28;20466;-46
2023/07/21 13:40:05;;;;;;;3.20;2.17;;;;;;;;;;5032224;28;20469;-45
2023/07/21 13:42:33;;;;;;;3.37;2.00;;;;;;;;;;5031080;28;20464;-45
2023/07/21 13:45:00;;;;;;;4.00;2.23;;;24.30;71.20;;;;;;5031895;28;20537;-46
2023/07/21 13:47:27;;;;;;;3.43;2.23;;;;;;;;;;5031798;28;20796;-47
2023/07/21 13:49:54;;;;;;;2.93;1.80;;;;;;;;;;5031798;28;20439;-46
2023/07/21 13:52:21;;;;;;;2.73;1.80;;;;;;;;;;5031788;28;20493;-47
2023/07/21 13:54:48;;;;;;;2.13;1.60;;;;;;;;;;5031661;28;20435;-46
2023/07/21 13:57:15;;;;;;;4.10;1.97;;;;;;;;;;5031553;28;20538;-47
2023/07/21 13:59:44;;;;;;;2.43;1.87;;;;;;;;;;5031547;28;20818;-46
2023/07/21 14:02:11;;;;;;;2.40;2.00;;;;;;;;;;5032023;28;20788;-46
2023/07/21 14:04:38;;;;;;;4.30;1.90;;;;;;;;;;5032072;28;20512;-46
2023/07/21 14:07:06;;;;;;;2.57;2.10;;;;;;;;;;5031488;28;20493;-48
2023/07/21 14:09:33;;;;;;;2.80;1.77;;;;;;;;;;5032148;28;20460;-46
2023/07/21 14:12:00;;;;;;;4.03;1.93;;;;;;;;;;5031598;28;20423;-46
2023/07/21 14:14:27;;;;;;;4.03;2.90;;;;;;;;;;5031658;28;20442;-46
2023/07/21 14:16:55;;;;;;;2.67;2.00;;;;;;;;;;5031513;28;20439;-45
2023/07/21 14:19:23;;;;;;;3.13;2.57;;;;;;;;;;5031892;28;20438;-45
2023/07/21 14:21:50;;;;;;;4.57;2.30;;;;;;;;;;5032663;28;20837;-44
2023/07/21 14:24:17;;;;;;;6.90;2.40;;;;;;;;;;5031258;28;20966;-45
2023/07/21 14:26:44;;;;;;;4.67;3.00;;;;;;;;;;5031389;28;20466;-46
2023/07/21 14:29:11;;;;;;;2.80;2.30;;;;;;;;;;5031757;28;20814;-47
2023/07/21 14:31:38;;;;;;;3.20;2.20;;;;;;;;;;5035609;28;20448;-45